sensor_id;sensor_type;location;lat;lon;timestamp;P1;durP1;ratioP1;P2;durP2;ratioP2
52586;SDS011;38480;52.724;6.436;2023-04-07T00:01:19;127.73;;;50.87;;
52586;SDS011;38480;52.724;6.436;2023-04-07T00:03:45;127.67;;;54.90;;
52586;SDS011;38480;52.724;6.436;2023-04-07T00:06:12;157.20;;;57.27;;
52586;SDS011;38480;52.724;6.436;2023-04-07T00:08:38;143.63;;;56.63;;
52586;SDS011;38480;52.724;6.436;2023-04-07T00:11:04;164.37;;;60.77;;
52586;SDS011;38480;52.724;6.436;2023-04-07T00:13:30;154.57;;;60.83;;
52586;SDS011;38480;52.724;6.436;2023-04-07T00:15:56;127.10;;;54.40;;
52586;SDS011;38480;52.724;6.436;2023-04-07T00:18:22;129.63;;;54.53;;
52586;SDS011;38480;52.724;6.436;2023-04-07T00:20:48;142.50;;;55.93;;
52586;SDS011;38480;52.724;6.436;2023-04-07T00:23:14;145.13;;;58.13;;
52586;SDS011;38480;52.724;6.436;2023-04-07T00:25:40;143.53;;;58.20;;
52586;SDS011;38480;52.724;6.436;2023-04-07T00:28:06;238.90;;;69.47;;
52586;SDS011;38480;52.724;6.436;2023-04-07T00:30:32;141.73;;;55.97;;
52586;SDS011;38480;52.724;6.436;2023-04-07T00:32:58;188.63;;;62.33;;
52586;SDS011;38480;52.724;6.436;2023-04-07T00:35:25;142.37;;;53.70;;
52586;SDS011;38480;52.724;6.436;2023-04-07T00:37:51;148.33;;;56.47;;
52586;SDS011;38480;52.724;6.436;2023-04-07T00:40:17;150.80;;;56.47;;
52586;SDS011;38480;52.724;6.436;2023-04-07T00:42:43;188.77;;;65.53;;
52586;SDS011;38480;52.724;6.436;2023-04-07T00:45:09;149.47;;;58.03;;
52586;SDS011;38480;52.724;6.436;2023-04-07T00:47:35;125.70;;;52.47;;
52586;SDS011;38480;52.724;6.436;2023-04-07T00:50:05;156.03;;;58.50;;
52586;SDS011;38480;52.724;6.436;2023-04-07T00:52:31;178.43;;;61.37;;
52586;SDS011;38480;52.724;6.436;2023-04-07T00:54:58;171.07;;;59.70;;
52586;SDS011;38480;52.724;6.436;2023-04-07T00:57:24;168.73;;;59.97;;
52586;SDS011;38480;52.724;6.436;2023-04-07T00:59:51;145.87;;;57.53;;
52586;SDS011;38480;52.724;6.436;2023-04-07T01:02:18;143.73;;;57.53;;
52586;SDS011;38480;52.724;6.436;2023-04-07T01:04:48;151.13;;;57.50;;
52586;SDS011;38480;52.724;6.436;2023-04-07T01:07:23;165.60;;;62.43;;
52586;SDS011;38480;52.724;6.436;2023-04-07T01:09:54;143.30;;;57.47;;
52586;SDS011;38480;52.724;6.436;2023-04-07T01:14:50;151.30;;;61.40;;
52586;SDS011;38480;52.724;6.436;2023-04-07T01:17:19;180.97;;;61.53;;
52586;SDS011;38480;52.724;6.436;2023-04-07T01:19:46;144.33;;;58.03;;
52586;SDS011;38480;52.724;6.436;2023-04-07T01:22:14;166.63;;;59.63;;
52586;SDS011;38480;52.724;6.436;2023-04-07T01:30:08;162.97;;;60.03;;
52586;SDS011;38480;52.724;6.436;2023-04-07T01:32:34;176.27;;;62.87;;
52586;SDS011;38480;52.724;6.436;2023-04-07T01:35:01;165.60;;;62.00;;
52586;SDS011;38480;52.724;6.436;2023-04-07T01:37:29;153.00;;;59.17;;
52586;SDS011;38480;52.724;6.436;2023-04-07T01:39:56;162.50;;;60.03;;
52586;SDS011;38480;52.724;6.436;2023-04-07T01:42:22;189.57;;;65.10;;
52586;SDS011;38480;52.724;6.436;2023-04-07T01:44:50;150.60;;;57.90;;
52586;SDS011;38480;52.724;6.436;2023-04-07T01:47:16;167.70;;;61.20;;
52586;SDS011;38480;52.724;6.436;2023-04-07T01:49:43;178.87;;;63.57;;
52586;SDS011;38480;52.724;6.436;2023-04-07T01:52:10;214.17;;;67.83;;
52586;SDS011;38480;52.724;6.436;2023-04-07T01:54:37;257.47;;;73.53;;
52586;SDS011;38480;52.724;6.436;2023-04-07T01:57:04;146.83;;;56.20;;
52586;SDS011;38480;52.724;6.436;2023-04-07T01:59:30;164.70;;;61.13;;
52586;SDS011;38480;52.724;6.436;2023-04-07T02:01:56;191.43;;;65.83;;
52586;SDS011;38480;52.724;6.436;2023-04-07T02:04:34;257.50;;;71.33;;
52586;SDS011;38480;52.724;6.436;2023-04-07T02:07:38;230.80;;;66.93;;
52586;SDS011;38480;52.724;6.436;2023-04-07T02:09:55;156.30;;;57.87;;
52586;SDS011;38480;52.724;6.436;2023-04-07T02:12:22;293.43;;;75.50;;
52586;SDS011;38480;52.724;6.436;2023-04-07T02:14:49;177.77;;;62.60;;
52586;SDS011;38480;52.724;6.436;2023-04-07T02:17:15;220.47;;;67.10;;
52586;SDS011;38480;52.724;6.436;2023-04-07T02:19:42;204.40;;;63.90;;
52586;SDS011;38480;52.724;6.436;2023-04-07T02:22:09;199.33;;;63.37;;
52586;SDS011;38480;52.724;6.436;2023-04-07T02:24:35;151.70;;;55.90;;
52586;SDS011;38480;52.724;6.436;2023-04-07T02:27:01;175.73;;;63.87;;
52586;SDS011;38480;52.724;6.436;2023-04-07T02:29:27;229.83;;;67.67;;
52586;SDS011;38480;52.724;6.436;2023-04-07T02:31:54;182.17;;;61.77;;
52586;SDS011;38480;52.724;6.436;2023-04-07T02:34:20;200.63;;;65.13;;
52586;SDS011;38480;52.724;6.436;2023-04-07T02:36:46;182.27;;;60.73;;
52586;SDS011;38480;52.724;6.436;2023-04-07T02:39:12;165.57;;;56.60;;
52586;SDS011;38480;52.724;6.436;2023-04-07T02:41:38;157.00;;;56.50;;
52586;SDS011;38480;52.724;6.436;2023-04-07T02:44:05;201.00;;;64.87;;
52586;SDS011;38480;52.724;6.436;2023-04-07T02:46:31;181.77;;;60.80;;
52586;SDS011;38480;52.724;6.436;2023-04-07T02:48:57;197.50;;;61.03;;
52586;SDS011;38480;52.724;6.436;2023-04-07T02:51:23;215.43;;;63.23;;
52586;SDS011;38480;52.724;6.436;2023-04-07T02:53:49;251.43;;;67.70;;
52586;SDS011;38480;52.724;6.436;2023-04-07T02:56:15;187.93;;;60.07;;
52586;SDS011;38480;52.724;6.436;2023-04-07T02:58:41;231.47;;;67.90;;
52586;SDS011;38480;52.724;6.436;2023-04-07T03:01:07;216.40;;;63.23;;
52586;SDS011;38480;52.724;6.436;2023-04-07T03:03:33;229.50;;;67.93;;
52586;SDS011;38480;52.724;6.436;2023-04-07T03:05:59;202.50;;;62.70;;
52586;SDS011;38480;52.724;6.436;2023-04-07T03:08:25;179.97;;;59.43;;
52586;SDS011;38480;52.724;6.436;2023-04-07T03:10:51;222.93;;;67.43;;
52586;SDS011;38480;52.724;6.436;2023-04-07T03:13:19;261.00;;;70.00;;
52586;SDS011;38480;52.724;6.436;2023-04-07T03:15:45;235.83;;;67.27;;
52586;SDS011;38480;52.724;6.436;2023-04-07T03:18:11;249.57;;;67.47;;
52586;SDS011;38480;52.724;6.436;2023-04-07T03:20:37;290.37;;;73.40;;
52586;SDS011;38480;52.724;6.436;2023-04-07T03:23:06;369.47;;;79.60;;
52586;SDS011;38480;52.724;6.436;2023-04-07T03:25:32;300.00;;;74.63;;
52586;SDS011;38480;52.724;6.436;2023-04-07T03:27:58;236.53;;;67.20;;
52586;SDS011;38480;52.724;6.436;2023-04-07T03:30:24;226.53;;;66.20;;
52586;SDS011;38480;52.724;6.436;2023-04-07T03:32:50;249.90;;;67.57;;
52586;SDS011;38480;52.724;6.436;2023-04-07T03:35:16;215.03;;;64.70;;
52586;SDS011;38480;52.724;6.436;2023-04-07T03:37:42;225.20;;;65.23;;
52586;SDS011;38480;52.724;6.436;2023-04-07T03:40:08;246.13;;;69.27;;
52586;SDS011;38480;52.724;6.436;2023-04-07T03:42:34;227.97;;;63.90;;
52586;SDS011;38480;52.724;6.436;2023-04-07T03:45:00;252.23;;;69.60;;
52586;SDS011;38480;52.724;6.436;2023-04-07T03:47:26;216.30;;;66.00;;
52586;SDS011;38480;52.724;6.436;2023-04-07T03:49:52;225.40;;;66.77;;
52586;SDS011;38480;52.724;6.436;2023-04-07T03:52:18;198.57;;;61.03;;
52586;SDS011;38480;52.724;6.436;2023-04-07T03:54:44;210.30;;;63.93;;
52586;SDS011;38480;52.724;6.436;2023-04-07T03:57:10;199.80;;;62.80;;
52586;SDS011;38480;52.724;6.436;2023-04-07T03:59:36;270.30;;;70.87;;
52586;SDS011;38480;52.724;6.436;2023-04-07T04:02:02;271.00;;;68.70;;
52586;SDS011;38480;52.724;6.436;2023-04-07T04:04:28;203.77;;;62.67;;
52586;SDS011;38480;52.724;6.436;2023-04-07T04:06:54;243.20;;;67.00;;
52586;SDS011;38480;52.724;6.436;2023-04-07T04:09:20;180.30;;;60.63;;
52586;SDS011;38480;52.724;6.436;2023-04-07T04:11:46;246.30;;;67.43;;
52586;SDS011;38480;52.724;6.436;2023-04-07T04:14:12;197.70;;;61.13;;
52586;SDS011;38480;52.724;6.436;2023-04-07T04:16:38;242.70;;;65.80;;
52586;SDS011;38480;52.724;6.436;2023-04-07T04:19:04;222.20;;;63.17;;
52586;SDS011;38480;52.724;6.436;2023-04-07T04:21:30;228.30;;;62.97;;
52586;SDS011;38480;52.724;6.436;2023-04-07T04:23:56;242.77;;;65.03;;
52586;SDS011;38480;52.724;6.436;2023-04-07T04:26:22;172.77;;;54.73;;
52586;SDS011;38480;52.724;6.436;2023-04-07T04:28:50;225.90;;;62.07;;
52586;SDS011;38480;52.724;6.436;2023-04-07T04:31:17;185.90;;;55.33;;
52586;SDS011;38480;52.724;6.436;2023-04-07T04:33:43;153.40;;;51.07;;
52586;SDS011;38480;52.724;6.436;2023-04-07T04:36:09;230.23;;;60.93;;
52586;SDS011;38480;52.724;6.436;2023-04-07T04:38:35;185.30;;;57.53;;
52586;SDS011;38480;52.724;6.436;2023-04-07T04:41:01;171.80;;;54.60;;
52586;SDS011;38480;52.724;6.436;2023-04-07T04:43:27;255.90;;;64.43;;
52586;SDS011;38480;52.724;6.436;2023-04-07T04:45:53;202.63;;;58.27;;
52586;SDS011;38480;52.724;6.436;2023-04-07T04:48:20;237.80;;;61.73;;
52586;SDS011;38480;52.724;6.436;2023-04-07T04:50:46;148.80;;;52.43;;
52586;SDS011;38480;52.724;6.436;2023-04-07T04:53:12;165.53;;;53.00;;
52586;SDS011;38480;52.724;6.436;2023-04-07T04:55:38;297.27;;;67.27;;
52586;SDS011;38480;52.724;6.436;2023-04-07T04:58:06;166.40;;;52.07;;
52586;SDS011;38480;52.724;6.436;2023-04-07T05:00:32;227.70;;;60.77;;
52586;SDS011;38480;52.724;6.436;2023-04-07T05:02:58;155.90;;;50.77;;
52586;SDS011;38480;52.724;6.436;2023-04-07T05:05:25;122.17;;;45.07;;
52586;SDS011;38480;52.724;6.436;2023-04-07T05:07:51;133.50;;;47.60;;
52586;SDS011;38480;52.724;6.436;2023-04-07T05:10:17;130.70;;;44.93;;
52586;SDS011;38480;52.724;6.436;2023-04-07T05:12:43;110.90;;;43.13;;
52586;SDS011;38480;52.724;6.436;2023-04-07T05:15:09;152.17;;;49.47;;
52586;SDS011;38480;52.724;6.436;2023-04-07T05:17:35;109.83;;;40.73;;
52586;SDS011;38480;52.724;6.436;2023-04-07T05:20:02;127.07;;;45.47;;
52586;SDS011;38480;52.724;6.436;2023-04-07T05:22:28;149.83;;;47.60;;
52586;SDS011;38480;52.724;6.436;2023-04-07T05:24:54;131.97;;;46.53;;
52586;SDS011;38480;52.724;6.436;2023-04-07T05:27:20;144.63;;;47.13;;
52586;SDS011;38480;52.724;6.436;2023-04-07T05:29:46;165.43;;;50.73;;
52586;SDS011;38480;52.724;6.436;2023-04-07T05:32:12;136.00;;;47.60;;
52586;SDS011;38480;52.724;6.436;2023-04-07T05:34:38;133.20;;;46.47;;
52586;SDS011;38480;52.724;6.436;2023-04-07T05:37:05;165.37;;;50.77;;
52586;SDS011;38480;52.724;6.436;2023-04-07T05:39:31;158.37;;;51.43;;
52586;SDS011;38480;52.724;6.436;2023-04-07T05:41:57;111.13;;;42.80;;
52586;SDS011;38480;52.724;6.436;2023-04-07T05:44:23;107.47;;;43.90;;
52586;SDS011;38480;52.724;6.436;2023-04-07T05:46:49;145.23;;;51.27;;
52586;SDS011;38480;52.724;6.436;2023-04-07T05:49:15;118.03;;;45.27;;
52586;SDS011;38480;52.724;6.436;2023-04-07T05:51:41;122.53;;;47.03;;
52586;SDS011;38480;52.724;6.436;2023-04-07T05:54:07;167.67;;;51.60;;
52586;SDS011;38480;52.724;6.436;2023-04-07T05:56:33;105.10;;;42.03;;
52586;SDS011;38480;52.724;6.436;2023-04-07T05:58:59;116.60;;;44.57;;
52586;SDS011;38480;52.724;6.436;2023-04-07T06:01:26;126.03;;;45.10;;
52586;SDS011;38480;52.724;6.436;2023-04-07T06:03:52;153.90;;;51.70;;
52586;SDS011;38480;52.724;6.436;2023-04-07T06:06:18;92.43;;;39.70;;
52586;SDS011;38480;52.724;6.436;2023-04-07T06:08:44;116.77;;;45.90;;
52586;SDS011;38480;52.724;6.436;2023-04-07T06:11:11;151.57;;;50.33;;
52586;SDS011;38480;52.724;6.436;2023-04-07T06:13:37;132.43;;;46.23;;
52586;SDS011;38480;52.724;6.436;2023-04-07T06:16:03;170.33;;;52.87;;
52586;SDS011;38480;52.724;6.436;2023-04-07T06:18:30;155.40;;;50.80;;
52586;SDS011;38480;52.724;6.436;2023-04-07T06:20:56;150.40;;;49.30;;
52586;SDS011;38480;52.724;6.436;2023-04-07T06:23:22;138.13;;;48.30;;
52586;SDS011;38480;52.724;6.436;2023-04-07T06:25:48;139.03;;;48.57;;
52586;SDS011;38480;52.724;6.436;2023-04-07T06:28:17;227.00;;;57.17;;
52586;SDS011;38480;52.724;6.436;2023-04-07T06:30:43;96.97;;;40.73;;
52586;SDS011;38480;52.724;6.436;2023-04-07T06:33:09;110.97;;;44.90;;
52586;SDS011;38480;52.724;6.436;2023-04-07T06:35:35;124.73;;;47.17;;
52586;SDS011;38480;52.724;6.436;2023-04-07T06:38:01;112.90;;;44.23;;
52586;SDS011;38480;52.724;6.436;2023-04-07T06:40:27;87.30;;;39.30;;
52586;SDS011;38480;52.724;6.436;2023-04-07T06:42:53;96.03;;;40.87;;
52586;SDS011;38480;52.724;6.436;2023-04-07T06:45:20;86.63;;;37.13;;
52586;SDS011;38480;52.724;6.436;2023-04-07T06:47:46;87.87;;;39.53;;
52586;SDS011;38480;52.724;6.436;2023-04-07T06:50:12;122.73;;;46.53;;
52586;SDS011;38480;52.724;6.436;2023-04-07T06:52:38;104.97;;;42.73;;
52586;SDS011;38480;52.724;6.436;2023-04-07T06:55:04;152.00;;;49.67;;
52586;SDS011;38480;52.724;6.436;2023-04-07T06:57:31;116.93;;;44.93;;
52586;SDS011;38480;52.724;6.436;2023-04-07T06:59:57;104.20;;;41.37;;
52586;SDS011;38480;52.724;6.436;2023-04-07T07:02:23;99.50;;;41.73;;
52586;SDS011;38480;52.724;6.436;2023-04-07T07:04:50;126.60;;;45.77;;
52586;SDS011;38480;52.724;6.436;2023-04-07T07:07:15;180.67;;;53.73;;
52586;SDS011;38480;52.724;6.436;2023-04-07T07:09:41;119.90;;;43.17;;
52586;SDS011;38480;52.724;6.436;2023-04-07T07:12:07;124.20;;;43.73;;
52586;SDS011;38480;52.724;6.436;2023-04-07T07:14:33;86.20;;;37.40;;
52586;SDS011;38480;52.724;6.436;2023-04-07T07:17:00;91.77;;;38.33;;
52586;SDS011;38480;52.724;6.436;2023-04-07T07:19:26;81.90;;;36.83;;
52586;SDS011;38480;52.724;6.436;2023-04-07T07:21:52;113.90;;;43.40;;
52586;SDS011;38480;52.724;6.436;2023-04-07T07:24:19;95.07;;;39.13;;
52586;SDS011;38480;52.724;6.436;2023-04-07T07:26:45;80.40;;;36.20;;
52586;SDS011;38480;52.724;6.436;2023-04-07T07:29:11;89.23;;;37.03;;
52586;SDS011;38480;52.724;6.436;2023-04-07T07:31:37;90.47;;;36.63;;
52586;SDS011;38480;52.724;6.436;2023-04-07T07:34:03;88.00;;;35.77;;
52586;SDS011;38480;52.724;6.436;2023-04-07T07:36:29;92.27;;;38.37;;
52586;SDS011;38480;52.724;6.436;2023-04-07T07:38:56;107.87;;;41.50;;
52586;SDS011;38480;52.724;6.436;2023-04-07T07:41:22;89.70;;;38.53;;
52586;SDS011;38480;52.724;6.436;2023-04-07T07:43:48;84.27;;;35.07;;
52586;SDS011;38480;52.724;6.436;2023-04-07T07:46:14;86.40;;;36.30;;
52586;SDS011;38480;52.724;6.436;2023-04-07T07:48:40;66.03;;;30.40;;
52586;SDS011;38480;52.724;6.436;2023-04-07T07:51:06;81.50;;;33.97;;
52586;SDS011;38480;52.724;6.436;2023-04-07T07:53:32;80.50;;;35.43;;
52586;SDS011;38480;52.724;6.436;2023-04-07T07:55:58;65.43;;;31.20;;
52586;SDS011;38480;52.724;6.436;2023-04-07T07:58:25;66.97;;;30.23;;
52586;SDS011;38480;52.724;6.436;2023-04-07T08:00:51;56.03;;;28.50;;
52586;SDS011;38480;52.724;6.436;2023-04-07T08:03:17;43.23;;;25.97;;
52586;SDS011;38480;52.724;6.436;2023-04-07T08:05:46;54.40;;;26.93;;
52586;SDS011;38480;52.724;6.436;2023-04-07T08:08:13;68.10;;;31.70;;
52586;SDS011;38480;52.724;6.436;2023-04-07T08:10:39;53.13;;;27.77;;
52586;SDS011;38480;52.724;6.436;2023-04-07T08:13:05;62.97;;;30.40;;
52586;SDS011;38480;52.724;6.436;2023-04-07T08:15:31;60.33;;;28.70;;
52586;SDS011;38480;52.724;6.436;2023-04-07T08:17:57;63.00;;;30.93;;
52586;SDS011;38480;52.724;6.436;2023-04-07T08:20:25;60.80;;;31.77;;
52586;SDS011;38480;52.724;6.436;2023-04-07T08:22:51;44.50;;;26.63;;
52586;SDS011;38480;52.724;6.436;2023-04-07T08:25:17;47.57;;;27.77;;
52586;SDS011;38480;52.724;6.436;2023-04-07T08:27:44;57.10;;;28.97;;
52586;SDS011;38480;52.724;6.436;2023-04-07T08:30:10;61.47;;;31.23;;
52586;SDS011;38480;52.724;6.436;2023-04-07T08:32:40;75.90;;;33.27;;
52586;SDS011;38480;52.724;6.436;2023-04-07T08:35:06;71.87;;;33.30;;
52586;SDS011;38480;52.724;6.436;2023-04-07T08:37:33;64.10;;;32.83;;
52586;SDS011;38480;52.724;6.436;2023-04-07T08:40:00;43.23;;;27.23;;
52586;SDS011;38480;52.724;6.436;2023-04-07T08:42:27;63.87;;;32.80;;
52586;SDS011;38480;52.724;6.436;2023-04-07T08:44:57;51.20;;;29.00;;
52586;SDS011;38480;52.724;6.436;2023-04-07T08:47:26;40.93;;;26.27;;
52586;SDS011;38480;52.724;6.436;2023-04-07T08:49:53;43.07;;;26.57;;
52586;SDS011;38480;52.724;6.436;2023-04-07T08:52:22;35.00;;;23.67;;
52586;SDS011;38480;52.724;6.436;2023-04-07T08:54:49;51.83;;;30.23;;
52586;SDS011;38480;52.724;6.436;2023-04-07T08:57:17;43.67;;;26.67;;
52586;SDS011;38480;52.724;6.436;2023-04-07T08:59:43;41.53;;;24.90;;
52586;SDS011;38480;52.724;6.436;2023-04-07T09:02:13;43.13;;;25.10;;
52586;SDS011;38480;52.724;6.436;2023-04-07T09:04:39;34.70;;;24.10;;
52586;SDS011;38480;52.724;6.436;2023-04-07T09:07:06;52.73;;;29.57;;
52586;SDS011;38480;52.724;6.436;2023-04-07T09:09:32;35.43;;;22.93;;
52586;SDS011;38480;52.724;6.436;2023-04-07T09:11:58;36.77;;;23.77;;
52586;SDS011;38480;52.724;6.436;2023-04-07T09:14:24;32.27;;;21.07;;
52586;SDS011;38480;52.724;6.436;2023-04-07T09:16:50;27.57;;;19.83;;
52586;SDS011;38480;52.724;6.436;2023-04-07T09:19:17;27.77;;;20.10;;
52586;SDS011;38480;52.724;6.436;2023-04-07T09:21:46;25.13;;;19.17;;
52586;SDS011;38480;52.724;6.436;2023-04-07T09:24:23;25.73;;;19.50;;
52586;SDS011;38480;52.724;6.436;2023-04-07T09:26:49;24.33;;;18.30;;
52586;SDS011;38480;52.724;6.436;2023-04-07T09:29:19;24.97;;;18.97;;
52586;SDS011;38480;52.724;6.436;2023-04-07T09:31:46;24.30;;;18.67;;
52586;SDS011;38480;52.724;6.436;2023-04-07T09:34:30;24.67;;;18.17;;
52586;SDS011;38480;52.724;6.436;2023-04-07T09:36:57;30.73;;;21.58;;
52586;SDS011;38480;52.724;6.436;2023-04-07T09:39:24;19.77;;;17.00;;
52586;SDS011;38480;52.724;6.436;2023-04-07T09:41:50;21.40;;;16.33;;
52586;SDS011;38480;52.724;6.436;2023-04-07T09:44:19;24.03;;;17.73;;
52586;SDS011;38480;52.724;6.436;2023-04-07T09:46:52;20.13;;;16.43;;
52586;SDS011;38480;52.724;6.436;2023-04-07T09:49:19;17.08;;;14.27;;
52586;SDS011;38480;52.724;6.436;2023-04-07T09:51:58;21.53;;;16.07;;
52586;SDS011;38480;52.724;6.436;2023-04-07T09:54:34;18.33;;;15.53;;
52586;SDS011;38480;52.724;6.436;2023-04-07T09:57:02;15.33;;;13.63;;
52586;SDS011;38480;52.724;6.436;2023-04-07T09:59:29;15.80;;;13.43;;
52586;SDS011;38480;52.724;6.436;2023-04-07T10:01:55;17.03;;;14.30;;
52586;SDS011;38480;52.724;6.436;2023-04-07T10:04:21;19.13;;;14.50;;
52586;SDS011;38480;52.724;6.436;2023-04-07T10:06:48;18.53;;;15.93;;
52586;SDS011;38480;52.724;6.436;2023-04-07T10:09:16;18.03;;;16.13;;
52586;SDS011;38480;52.724;6.436;2023-04-07T10:11:42;20.47;;;17.03;;
52586;SDS011;38480;52.724;6.436;2023-04-07T10:14:08;16.93;;;15.13;;
52586;SDS011;38480;52.724;6.436;2023-04-07T10:16:36;15.90;;;13.87;;
52586;SDS011;38480;52.724;6.436;2023-04-07T10:19:02;22.13;;;17.63;;
52586;SDS011;38480;52.724;6.436;2023-04-07T10:21:28;18.67;;;16.37;;
52586;SDS011;38480;52.724;6.436;2023-04-07T10:23:58;15.60;;;14.00;;
52586;SDS011;38480;52.724;6.436;2023-04-07T10:26:29;16.47;;;14.77;;
52586;SDS011;38480;52.724;6.436;2023-04-07T10:28:58;17.60;;;14.33;;
52586;SDS011;38480;52.724;6.436;2023-04-07T10:31:25;14.33;;;12.87;;
52586;SDS011;38480;52.724;6.436;2023-04-07T10:33:52;14.90;;;13.30;;
52586;SDS011;38480;52.724;6.436;2023-04-07T10:36:19;13.33;;;11.93;;
52586;SDS011;38480;52.724;6.436;2023-04-07T10:43:57;13.23;;;10.97;;
52586;SDS011;38480;52.724;6.436;2023-04-07T10:46:23;12.27;;;10.43;;
52586;SDS011;38480;52.724;6.436;2023-04-07T10:49:08;12.27;;;10.80;;
52586;SDS011;38480;52.724;6.436;2023-04-07T10:51:35;11.07;;;9.50;;
52586;SDS011;38480;52.724;6.436;2023-04-07T10:54:13;10.23;;;9.23;;
52586;SDS011;38480;52.724;6.436;2023-04-07T10:59:26;8.73;;;7.57;;
52586;SDS011;38480;52.724;6.436;2023-04-07T11:04:42;8.20;;;6.73;;
52586;SDS011;38480;52.724;6.436;2023-04-07T11:07:09;9.47;;;7.53;;
52586;SDS011;38480;52.724;6.436;2023-04-07T11:09:35;7.57;;;6.77;;
52586;SDS011;38480;52.724;6.436;2023-04-07T11:12:02;7.30;;;6.33;;
52586;SDS011;38480;52.724;6.436;2023-04-07T11:14:29;8.77;;;7.20;;
52586;SDS011;38480;52.724;6.436;2023-04-07T11:16:56;7.70;;;6.30;;
52586;SDS011;38480;52.724;6.436;2023-04-07T11:19:22;8.17;;;6.77;;
52586;SDS011;38480;52.724;6.436;2023-04-07T11:21:48;6.70;;;5.80;;
52586;SDS011;38480;52.724;6.436;2023-04-07T11:24:30;6.73;;;5.47;;
52586;SDS011;38480;52.724;6.436;2023-04-07T11:26:57;5.50;;;4.90;;
52586;SDS011;38480;52.724;6.436;2023-04-07T11:29:32;6.17;;;4.90;;
52586;SDS011;38480;52.724;6.436;2023-04-07T11:32:00;10.40;;;5.43;;
52586;SDS011;38480;52.724;6.436;2023-04-07T11:34:29;6.67;;;5.10;;
52586;SDS011;38480;52.724;6.436;2023-04-07T11:36:56;5.87;;;5.20;;
52586;SDS011;38480;52.724;6.436;2023-04-07T11:39:24;7.37;;;5.37;;
52586;SDS011;38480;52.724;6.436;2023-04-07T11:41:55;7.37;;;6.10;;
52586;SDS011;38480;52.724;6.436;2023-04-07T11:44:22;6.80;;;6.07;;
52586;SDS011;38480;52.724;6.436;2023-04-07T11:46:57;8.80;;;5.67;;
52586;SDS011;38480;52.724;6.436;2023-04-07T11:49:24;6.47;;;5.45;;
52586;SDS011;38480;52.724;6.436;2023-04-07T11:51:58;7.20;;;5.77;;
52586;SDS011;38480;52.724;6.436;2023-04-07T11:54:25;7.25;;;6.47;;
52586;SDS011;38480;52.724;6.436;2023-04-07T11:56:51;7.47;;;6.43;;
52586;SDS011;38480;52.724;6.436;2023-04-07T11:59:22;7.83;;;7.03;;
52586;SDS011;38480;52.724;6.436;2023-04-07T12:01:49;7.73;;;6.70;;
52586;SDS011;38480;52.724;6.436;2023-04-07T12:04:16;8.47;;;7.33;;
52586;SDS011;38480;52.724;6.436;2023-04-07T12:06:43;7.13;;;6.43;;
52586;SDS011;38480;52.724;6.436;2023-04-07T12:09:26;7.57;;;6.77;;
52586;SDS011;38480;52.724;6.436;2023-04-07T12:11:53;6.88;;;6.18;;
52586;SDS011;38480;52.724;6.436;2023-04-07T12:14:19;6.60;;;5.90;;
52586;SDS011;38480;52.724;6.436;2023-04-07T12:16:45;6.50;;;5.90;;
52586;SDS011;38480;52.724;6.436;2023-04-07T12:19:11;7.67;;;5.93;;
52586;SDS011;38480;52.724;6.436;2023-04-07T12:21:37;6.50;;;5.43;;
52586;SDS011;38480;52.724;6.436;2023-04-07T12:24:03;5.90;;;5.30;;
52586;SDS011;38480;52.724;6.436;2023-04-07T12:26:29;5.87;;;4.90;;
52586;SDS011;38480;52.724;6.436;2023-04-07T12:28:56;5.77;;;5.00;;
52586;SDS011;38480;52.724;6.436;2023-04-07T12:31:29;5.95;;;5.10;;
52586;SDS011;38480;52.724;6.436;2023-04-07T12:33:55;5.83;;;4.87;;
52586;SDS011;38480;52.724;6.436;2023-04-07T12:36:21;5.07;;;4.37;;
52586;SDS011;38480;52.724;6.436;2023-04-07T12:38:47;6.00;;;5.20;;
52586;SDS011;38480;52.724;6.436;2023-04-07T12:41:13;7.37;;;5.97;;
52586;SDS011;38480;52.724;6.436;2023-04-07T12:43:39;7.73;;;6.33;;
52586;SDS011;38480;52.724;6.436;2023-04-07T12:46:05;9.27;;;6.97;;
52586;SDS011;38480;52.724;6.436;2023-04-07T12:48:31;8.83;;;7.30;;
52586;SDS011;38480;52.724;6.436;2023-04-07T12:50:58;8.63;;;7.57;;
52586;SDS011;38480;52.724;6.436;2023-04-07T12:53:24;9.10;;;7.30;;
52586;SDS011;38480;52.724;6.436;2023-04-07T12:55:51;9.33;;;8.07;;
52586;SDS011;38480;52.724;6.436;2023-04-07T12:58:17;11.50;;;8.27;;
52586;SDS011;38480;52.724;6.436;2023-04-07T13:00:43;9.70;;;8.27;;
52586;SDS011;38480;52.724;6.436;2023-04-07T13:03:11;9.00;;;7.70;;
52586;SDS011;38480;52.724;6.436;2023-04-07T13:05:37;9.73;;;7.87;;
52586;SDS011;38480;52.724;6.436;2023-04-07T13:08:03;9.20;;;7.40;;
52586;SDS011;38480;52.724;6.436;2023-04-07T13:10:30;8.77;;;6.53;;
52586;SDS011;38480;52.724;6.436;2023-04-07T13:12:57;8.10;;;6.50;;
52586;SDS011;38480;52.724;6.436;2023-04-07T13:15:23;7.57;;;6.77;;
52586;SDS011;38480;52.724;6.436;2023-04-07T13:17:49;9.87;;;6.70;;
52586;SDS011;38480;52.724;6.436;2023-04-07T13:20:15;7.83;;;6.60;;
52586;SDS011;38480;52.724;6.436;2023-04-07T13:22:41;8.53;;;6.87;;
52586;SDS011;38480;52.724;6.436;2023-04-07T13:25:07;7.97;;;6.50;;
52586;SDS011;38480;52.724;6.436;2023-04-07T13:27:33;9.53;;;7.20;;
52586;SDS011;38480;52.724;6.436;2023-04-07T13:29:59;8.13;;;6.67;;
52586;SDS011;38480;52.724;6.436;2023-04-07T13:32:25;10.37;;;6.83;;
52586;SDS011;38480;52.724;6.436;2023-04-07T13:34:51;8.33;;;6.27;;
52586;SDS011;38480;52.724;6.436;2023-04-07T13:37:17;9.80;;;6.73;;
52586;SDS011;38480;52.724;6.436;2023-04-07T13:39:43;7.97;;;6.63;;
52586;SDS011;38480;52.724;6.436;2023-04-07T13:42:10;8.37;;;6.43;;
52586;SDS011;38480;52.724;6.436;2023-04-07T13:44:36;7.27;;;6.40;;
52586;SDS011;38480;52.724;6.436;2023-04-07T13:47:03;7.33;;;6.50;;
52586;SDS011;38480;52.724;6.436;2023-04-07T13:49:29;7.97;;;5.97;;
52586;SDS011;38480;52.724;6.436;2023-04-07T13:51:55;7.63;;;6.23;;
52586;SDS011;38480;52.724;6.436;2023-04-07T13:54:21;7.73;;;6.33;;
52586;SDS011;38480;52.724;6.436;2023-04-07T13:56:47;7.93;;;6.73;;
52586;SDS011;38480;52.724;6.436;2023-04-07T13:59:14;7.80;;;6.07;;
52586;SDS011;38480;52.724;6.436;2023-04-07T14:01:41;7.20;;;5.77;;
52586;SDS011;38480;52.724;6.436;2023-04-07T14:04:07;6.97;;;5.97;;
52586;SDS011;38480;52.724;6.436;2023-04-07T14:06:33;8.10;;;5.53;;
52586;SDS011;38480;52.724;6.436;2023-04-07T14:09:01;8.20;;;6.43;;
52586;SDS011;38480;52.724;6.436;2023-04-07T14:11:27;7.20;;;5.70;;
52586;SDS011;38480;52.724;6.436;2023-04-07T14:13:54;9.10;;;5.93;;
52586;SDS011;38480;52.724;6.436;2023-04-07T14:16:23;6.23;;;5.43;;
52586;SDS011;38480;52.724;6.436;2023-04-07T14:18:49;6.87;;;5.47;;
52586;SDS011;38480;52.724;6.436;2023-04-07T14:21:16;6.90;;;5.27;;
52586;SDS011;38480;52.724;6.436;2023-04-07T14:23:42;8.63;;;5.37;;
52586;SDS011;38480;52.724;6.436;2023-04-07T14:26:08;6.57;;;5.73;;
52586;SDS011;38480;52.724;6.436;2023-04-07T14:28:35;7.10;;;5.80;;
52586;SDS011;38480;52.724;6.436;2023-04-07T14:31:01;6.80;;;5.43;;
52586;SDS011;38480;52.724;6.436;2023-04-07T14:33:27;6.63;;;5.47;;
52586;SDS011;38480;52.724;6.436;2023-04-07T14:35:53;8.10;;;6.40;;
52586;SDS011;38480;52.724;6.436;2023-04-07T14:38:20;6.07;;;5.20;;